Flight Track Log - Related Links

Times and Time Zones

All times are in EDT time to prevent confusion due to time zone crossing. See the AFL1253 flight status page for this flight to view local times or setup timezone preferences in your user account.

Time Position Orientation Groundspeed Altitude Reporting Facility
EDT Latitude Longitude Course Direction KTS MPH feet Rate Location/Type
Sat 10:55:00 AM 55.7729 50.6846 278° West  Level Estimated
Sat 10:56:00 AM 55.7836 50.5295 277° West  Level Estimated
Sat 10:57:00 AM 55.7940 50.3744 277° West  Level Estimated
Sat 10:58:00 AM 55.8043 50.2192 277° West  Level Estimated
Sat 10:59:00 AM 55.8144 50.0639 277° West  Level Estimated
Sat 11:00:00 AM 55.8242 49.9086 277° West  Level Estimated
Sat 11:01:00 AM 55.8339 49.7532 276° West  Level Estimated
Sat 11:02:00 AM 55.8434 49.5976 276° West  Level Estimated
Sat 11:03:00 AM 55.8527 49.4420 276° West  Level Estimated
Sat 11:04:00 AM 55.8618 49.2864 276° West  Level Estimated
Sat 11:05:00 AM 55.8707 49.1306 276° West  Level Estimated
Sat 11:06:00 AM 55.8793 48.9748 276° West  Level Estimated
Sat 11:07:00 AM 55.8879 48.8190 276° West  Level Estimated
Sat 11:08:00 AM 55.8961 48.6630 275° West  Level Estimated
Sat 11:09:00 AM 55.9043 48.5070 275° West  Level Estimated
Sat 11:10:00 AM 55.9141 48.3114 275° West  Level Estimated
Sat 11:11:00 AM 55.9237 48.1157 275° West  Level Estimated
Sat 11:12:00 AM 55.9329 47.9200 275° West  Level Estimated
Sat 11:13:00 AM 55.9419 47.7241 275° West  Level Estimated
Sat 11:14:00 AM 55.9505 47.5281 275° West  Level Estimated
Sat 11:15:00 AM 55.9588 47.3321 274° West  Level Estimated
Sat 11:16:00 AM 55.9669 47.1360 274° West  Level Estimated
Sat 11:17:00 AM 55.9745 46.9398 274° West  Level Estimated
Sat 11:18:00 AM 55.9819 46.7435 274° West  Level Estimated
Sat 11:19:00 AM 55.9890 46.5471 274° West  Level Estimated
Sat 11:20:00 AM 55.9958 46.3507 274° West  Level Estimated
Sat 11:21:00 AM 56.0022 46.1542 273° West  Level Estimated
Sat 11:22:00 AM 56.0084 45.9576 273° West  Level Estimated
Sat 11:23:00 AM 56.0142 45.7610 273° West  Level Estimated
Sat 11:24:00 AM 56.0197 45.5643 273° West  Level Estimated
Sat 11:25:00 AM 56.0249 45.3676 273° West  Level Estimated
Sat 11:26:00 AM 56.0298 45.1708 273° West  Level Estimated
Sat 11:27:00 AM 56.0344 44.9740 272° West  Level Estimated
Sat 11:28:00 AM 56.0386 44.7771 272° West  Level Estimated
Sat 11:29:00 AM 56.0426 44.5802 272° West  Level Estimated
Sat 11:30:00 AM 56.0462 44.3806 272° West  Level Estimated
Sat 11:31:00 AM 56.0496 44.1809 272° West  Level Estimated
Sat 11:32:00 AM 56.0526 43.9812 272° West  Level Estimated
Sat 11:33:00 AM 56.0554 43.7815 271° West  Level Estimated
Sat 11:34:00 AM 56.0577 43.5817 271° West  Level Estimated
Sat 11:35:00 AM 56.0598 43.3820 271° West  Level Estimated
Sat 11:36:00 AM 56.0616 43.1822 271° West  Level Estimated
Sat 11:37:00 AM 56.0630 42.9824 271° West  Level Estimated
Sat 11:38:00 AM 56.0641 42.7826 271° West  Level Estimated
Sat 11:39:00 AM 56.0649 42.5827 270° West  Level Estimated
Sat 11:40:00 AM 56.0653 42.3829 270° West  Level Estimated
Sat 11:41:00 AM 56.0654 42.1831 270° West  Level Estimated
Sat 11:42:00 AM 56.0653 41.9832 270° West  Level Estimated
Sat 11:43:00 AM 56.0647 41.7834 270° West  Level Estimated
Sat 11:44:00 AM 56.0639 41.5836 270° West  Level Estimated
Sat 11:45:00 AM 56.0627 41.3838 269° West  Level Estimated
Sat 11:46:00 AM 56.0612 41.1839 269° West  Level Estimated
Sat 11:47:00 AM 56.0594 40.9842 269° West  Level Estimated
Sat 11:48:00 AM 56.0573 40.7844 269° West  Level Estimated
Sat 11:49:00 AM 56.0549 40.5847 269° West  Level Estimated
Sat 11:50:00 AM 56.0521 40.3849 269° West  Level Estimated
Sat 11:51:00 AM 56.0490 40.1853 268° West  Level Estimated
Sat 11:52:00 AM 56.0456 39.9856 268° West  Level Estimated
Sat 11:53:00 AM 56.0418 39.7860 268° West  Level Estimated
Sat 11:54:00 AM 56.0378 39.5864 268° West  Level Estimated
Sat 11:55:00 AM 56.0334 39.3869 268° West  Level Estimated
Sat 11:56:00 AM 56.0287 39.1874 268° West  Level Estimated
Sat 11:57:00 AM 56.0237 38.9880 267° West  Level Estimated
Sat 11:58:00 AM 56.0183 38.7886 267° West  Level Estimated
Sat 11:59:00 AM 56.0126 38.5893 267° West  Level Estimated
Sat 12:00:00 PM 56.0066 38.3900 267° West  Level Estimated
Sat 12:01:00 PM 56.0003 38.1908 267° West  Level Estimated
Sat 12:02:00 PM 55.9937 37.9917 267° West  Level Estimated
Sat 12:03:00 PM 55.9867 37.7926 267° West  Level Estimated
Sat 12:04:00 PM 55.9795 37.5936 266° West  Level Estimated
Sat 12:05:00 PM 55.9726 37.4146 266° West  Level Estimated
Sat 12:06:00 PM 55.9726 37.4146 North  Level Estimated
Sat 12:07:00 PM 55.9726 37.4146 North  Level Estimated
Sat 12:08:00 PM 55.9726 37.4146 North  Level Estimated
Sat 12:09:00 PM 55.9726 37.4146 North  Level Estimated
Sat 12:10:00 PM 55.9726 37.4146 North  Level Estimated
Sat 12:11:00 PM 55.9726 37.4146 North  Level Estimated
Sat 12:12:00 PM 55.9726 37.4146 North  Level Estimated
Sat 12:13:00 PM 55.9726 37.4146 North  Level Estimated
Sat 12:14:00 PM 55.9726 37.4146 North  Level Estimated
Sat 12:15:00 PM 55.9726 37.4146 North  Level Estimated
Sat 12:16:00 PM 55.9726 37.4146 North  Level Estimated

Login

Don't have an account? Register now (free) for customized features, flight alerts, and more!